createdAt,value
2017-10-21T00:02:25.379Z,99864.25
2017-10-21T00:04:51.700Z,99862.47
2017-10-21T00:07:18.151Z,99856.08
2017-10-21T00:09:44.619Z,99857.48
2017-10-21T00:12:11.009Z,99859.06
2017-10-21T00:14:37.444Z,99855.57
2017-10-21T00:17:03.784Z,99857.96
2017-10-21T00:19:30.141Z,99857.96
2017-10-21T00:21:57.227Z,99858.53
2017-10-21T00:24:23.585Z,99851.51
2017-10-21T00:26:49.929Z,99855.18
2017-10-21T00:29:16.314Z,99852.82
2017-10-21T00:31:42.636Z,99853.16
2017-10-21T00:34:09.767Z,99856.05
2017-10-21T00:36:36.237Z,99859.25
2017-10-21T00:39:02.651Z,99850.25
2017-10-21T00:41:29.917Z,99854.70
2017-10-21T00:43:56.323Z,99853.84
2017-10-21T00:46:22.704Z,99855.58
2017-10-21T00:48:49.121Z,99855.58
2017-10-21T00:51:15.584Z,99856.34
2017-10-21T00:53:42.084Z,99848.52
2017-10-21T00:56:08.444Z,99848.52
2017-10-21T00:58:34.795Z,99858.56
2017-10-21T01:01:01.126Z,99849.81
2017-10-21T01:03:27.540Z,99850.64
2017-10-21T01:05:53.881Z,99845.27
2017-10-21T01:08:20.282Z,99837.80
2017-10-21T01:10:46.621Z,99843.48
2017-10-21T01:13:12.959Z,99836.43
2017-10-21T01:15:39.265Z,99835.63
2017-10-21T01:18:06.330Z,99837.80
2017-10-21T01:20:32.789Z,99833.50
2017-10-21T01:22:59.197Z,99831.35
2017-10-21T01:25:25.526Z,99826.99
2017-10-21T01:27:51.919Z,99825.63
2017-10-21T01:30:18.278Z,99827.41
2017-10-21T01:32:45.371Z,99829.95
2017-10-21T01:35:11.895Z,99831.92
2017-10-21T01:37:38.233Z,99835.66
2017-10-21T01:40:04.628Z,99833.59
2017-10-21T01:42:30.954Z,99832.34
2017-10-21T01:44:57.467Z,99831.70
2017-10-21T01:47:23.865Z,99835.62
2017-10-21T01:49:50.221Z,99839.56
2017-10-21T01:52:16.636Z,99840.94
2017-10-21T01:54:43.072Z,99838.42
2017-10-21T01:57:09.430Z,99833.27
2017-10-21T01:59:36.580Z,99843.14
2017-10-21T02:02:03.936Z,99836.52
2017-10-21T02:04:30.383Z,99838.90
2017-10-21T02:06:57.502Z,99836.03
2017-10-21T02:09:23.864Z,99837.11
2017-10-21T02:11:50.939Z,99841.56
2017-10-21T02:14:17.331Z,99838.25
2017-10-21T02:16:43.786Z,99841.23
2017-10-21T02:19:10.887Z,99838.69
2017-10-21T02:21:37.329Z,99835.10
2017-10-21T02:24:04.441Z,99831.94
2017-10-21T02:26:30.802Z,99832.78
2017-10-21T02:28:57.902Z,99828.27
2017-10-21T02:31:24.254Z,99826.18
2017-10-21T02:33:50.658Z,99823.55
2017-10-21T02:36:17.773Z,99824.54
2017-10-21T02:38:44.154Z,99824.34
2017-10-21T02:41:11.248Z,99821.62
2017-10-21T02:43:37.638Z,99825.02
2017-10-21T02:46:03.953Z,99819.56
2017-10-21T02:48:31.055Z,99824.36
2017-10-21T02:50:57.449Z,99818.75
2017-10-21T02:53:23.812Z,99811.11
2017-10-21T02:55:50.155Z,99815.27
2017-10-21T02:58:16.465Z,99812.81
2017-10-21T03:00:42.845Z,99816.52
2017-10-21T03:03:10.012Z,99822.25
2017-10-21T03:05:37.088Z,99818.36
2017-10-21T03:08:03.533Z,99819.26
2017-10-21T03:10:29.945Z,99817.56
2017-10-21T03:12:56.275Z,99812.78
2017-10-21T03:15:22.610Z,99810.69
2017-10-21T03:17:48.963Z,99807.13
2017-10-21T03:20:15.357Z,99810.63
2017-10-21T03:22:41.735Z,99801.88
2017-10-21T03:25:08.165Z,99803.87
2017-10-21T03:27:34.486Z,99812.00
2017-10-21T03:30:00.856Z,99812.59
2017-10-21T03:32:27.190Z,99813.02
2017-10-21T03:34:53.514Z,99808.75
2017-10-21T03:37:19.869Z,99807.70
2017-10-21T03:39:47.001Z,99807.44
2017-10-21T03:42:13.386Z,99819.02
2017-10-21T03:44:39.873Z,99814.03
2017-10-21T03:47:06.166Z,99822.60
2017-10-21T03:49:32.578Z,99822.54
2017-10-21T03:51:59.033Z,99816.78
2017-10-21T03:54:25.344Z,99821.64
2017-10-21T03:56:51.743Z,99826.13
2017-10-21T03:59:19.654Z,99824.88
2017-10-21T04:01:46.064Z,99829.30
2017-10-21T04:04:13.199Z,99829.53
2017-10-21T04:06:40.475Z,99826.03
2017-10-21T04:09:06.801Z,99833.83
2017-10-21T04:11:33.149Z,99834.52
2017-10-21T04:13:59.567Z,99836.58
2017-10-21T04:16:26.668Z,99836.88
2017-10-21T04:18:53.141Z,99827.98
2017-10-21T04:21:20.312Z,99823.11
2017-10-21T04:23:46.743Z,99827.23
2017-10-21T04:26:13.158Z,99832.19
2017-10-21T04:28:40.240Z,99831.98
2017-10-21T04:31:06.563Z,99833.39
2017-10-21T04:33:33.060Z,99831.12
2017-10-21T04:35:59.367Z,99831.12
2017-10-21T04:38:25.668Z,99835.47
2017-10-21T04:40:51.989Z,99829.83
2017-10-21T04:43:18.344Z,99829.30
2017-10-21T04:45:44.659Z,99825.31
2017-10-21T04:48:11.022Z,99831.32
2017-10-21T04:50:37.324Z,99825.44
2017-10-21T04:53:03.630Z,99829.80
2017-10-21T04:55:29.991Z,99837.06
2017-10-21T04:57:56.420Z,99827.38
2017-10-21T05:00:22.754Z,99824.72
2017-10-21T05:02:49.145Z,99827.92
2017-10-21T05:05:16.291Z,99827.56
2017-10-21T05:07:42.635Z,99828.84
2017-10-21T05:10:09.781Z,99826.09
2017-10-21T05:12:36.202Z,99827.05
2017-10-21T05:15:02.547Z,99832.13
2017-10-21T05:17:29.636Z,99827.44
2017-10-21T05:19:55.963Z,99830.91
2017-10-21T05:22:22.300Z,99823.67
2017-10-21T05:24:48.625Z,99817.94
2017-10-21T05:27:15.119Z,99814.30
2017-10-21T05:29:42.142Z,99814.48
2017-10-21T05:32:08.477Z,99828.58
2017-10-21T05:34:34.783Z,99830.10
2017-10-21T05:37:01.166Z,99829.11
2017-10-21T05:39:28.240Z,99835.86
2017-10-21T05:41:54.580Z,99830.48
2017-10-21T05:44:20.981Z,99833.30
2017-10-21T05:46:48.066Z,99837.89
2017-10-21T05:49:14.463Z,99839.39
2017-10-21T05:51:40.836Z,99837.15
2017-10-21T05:54:07.262Z,99837.47
2017-10-21T05:56:33.650Z,99843.41
2017-10-21T05:59:00.756Z,99840.52
2017-10-21T06:01:27.169Z,99831.56
2017-10-21T06:03:53.565Z,99830.33
2017-10-21T06:06:19.947Z,99835.98
2017-10-21T06:08:46.345Z,99838.42
2017-10-21T06:11:12.817Z,99843.72
2017-10-21T06:13:39.386Z,99841.98
2017-10-21T06:16:05.909Z,99840.81
2017-10-21T06:18:32.545Z,99839.41
2017-10-21T06:20:59.121Z,99837.30
2017-10-21T06:23:26.317Z,99839.20
2017-10-21T06:25:52.814Z,99842.73
2017-10-21T06:28:19.974Z,99842.04
2017-10-21T06:30:46.468Z,99843.53
2017-10-21T06:33:12.915Z,99842.22
2017-10-21T06:35:39.249Z,99823.16
2017-10-21T06:38:06.331Z,99828.20
2017-10-21T06:40:32.746Z,99825.77
2017-10-21T06:42:59.116Z,99833.50
2017-10-21T06:45:25.563Z,99833.29
2017-10-21T06:47:51.962Z,99835.44
2017-10-21T06:50:18.266Z,99830.19
2017-10-21T06:52:45.360Z,99844.97
2017-10-21T06:55:11.716Z,99839.64
2017-10-21T06:57:38.057Z,99855.18
2017-10-21T07:00:04.545Z,99869.91
2017-10-21T07:02:30.852Z,99865.70
2017-10-21T07:04:57.913Z,99862.59
2017-10-21T07:07:24.266Z,99861.84
2017-10-21T07:09:50.659Z,99868.19
2017-10-21T07:12:17.743Z,99864.98
2017-10-21T07:14:44.048Z,99858.71
2017-10-21T07:17:11.069Z,99853.34
2017-10-21T07:19:37.342Z,99856.70
2017-10-21T07:22:03.752Z,99862.50
2017-10-21T07:24:30.190Z,99853.96
2017-10-21T07:26:57.340Z,99855.73
2017-10-21T07:29:24.111Z,99862.38
2017-10-21T07:31:50.736Z,99870.27
2017-10-21T07:34:17.090Z,99871.45
2017-10-21T07:36:43.453Z,99869.01
2017-10-21T07:39:09.738Z,99859.79
2017-10-21T07:41:36.145Z,99854.44
2017-10-21T07:44:03.233Z,99863.19
2017-10-21T07:46:29.530Z,99863.67
2017-10-21T07:48:56.650Z,99867.21
2017-10-21T07:51:23.049Z,99866.73
2017-10-21T07:53:49.428Z,99867.19
2017-10-21T07:56:16.765Z,99874.19
2017-10-21T07:58:43.093Z,99871.53
2017-10-21T08:01:09.416Z,99867.09
2017-10-21T08:03:35.749Z,99863.14
2017-10-21T08:06:02.906Z,99867.21
2017-10-21T08:08:29.223Z,99868.47
2017-10-21T08:10:56.233Z,99882.71
2017-10-21T08:13:22.545Z,99889.91
2017-10-21T08:15:49.591Z,99892.34
2017-10-21T08:18:16.791Z,99892.00
2017-10-21T08:20:43.181Z,99886.44
2017-10-21T08:23:10.535Z,99899.94
2017-10-21T08:25:37.548Z,99905.68
2017-10-21T08:28:04.601Z,99905.59
2017-10-21T08:30:30.991Z,99911.66
2017-10-21T08:32:57.371Z,99902.98
2017-10-21T08:35:23.747Z,99910.48
2017-10-21T08:37:50.117Z,99913.66
2017-10-21T08:40:16.497Z,99912.12
2017-10-21T08:42:50.779Z,99911.49
2017-10-21T08:45:17.953Z,99920.98
2017-10-21T08:47:45.169Z,99921.89
2017-10-21T08:50:11.504Z,99922.42
2017-10-21T08:52:37.949Z,99927.36
2017-10-21T08:55:05.259Z,99927.24
2017-10-21T08:57:31.640Z,99927.97
2017-10-21T08:59:57.922Z,99933.45
2017-10-21T09:02:24.241Z,99933.91
2017-10-21T09:04:50.529Z,99933.89
2017-10-21T09:07:16.887Z,99937.07
2017-10-21T09:09:43.327Z,99933.61
2017-10-21T09:12:09.750Z,99938.78
2017-10-21T09:14:36.797Z,99947.25
2017-10-21T09:17:03.111Z,99943.70
2017-10-21T09:19:29.443Z,99941.48
2017-10-21T09:21:55.719Z,99943.92
2017-10-21T09:24:22.074Z,99937.31
2017-10-21T09:26:48.402Z,99937.98
2017-10-21T09:29:14.753Z,99930.86
2017-10-21T09:31:41.088Z,99913.84
2017-10-21T09:34:07.422Z,99918.00
2017-10-21T09:36:33.754Z,99918.24
2017-10-21T09:39:00.082Z,99926.16
2017-10-21T09:41:26.434Z,99914.78
2017-10-21T09:43:53.684Z,99925.41
2017-10-21T09:46:20.098Z,99917.25
2017-10-21T09:48:46.450Z,99914.14
2017-10-21T09:51:13.628Z,99914.27
2017-10-21T09:53:40.024Z,99914.36
2017-10-21T09:56:06.417Z,99916.45
2017-10-21T09:58:32.747Z,99910.25
2017-10-21T10:00:59.108Z,99915.67
2017-10-21T10:03:25.520Z,99913.78
2017-10-21T10:05:52.554Z,99917.72
2017-10-21T10:08:18.860Z,99913.09
2017-10-21T10:10:45.217Z,99909.00
2017-10-21T10:13:11.564Z,99903.05
2017-10-21T10:15:37.952Z,99899.05
2017-10-21T10:18:04.309Z,99895.16
2017-10-21T10:20:30.690Z,99897.95
2017-10-21T10:22:57.045Z,99886.07
2017-10-21T10:25:24.139Z,99887.35
2017-10-21T10:27:50.597Z,99890.45
2017-10-21T10:30:16.959Z,99882.94
2017-10-21T10:32:44.036Z,99878.83
2017-10-21T10:35:10.324Z,99867.73
2017-10-21T10:37:37.442Z,99871.26
2017-10-21T10:40:03.750Z,99877.47
2017-10-21T10:42:30.270Z,99872.43
2017-10-21T10:44:56.589Z,99872.31
2017-10-21T10:47:23.010Z,99869.02
2017-10-21T10:49:50.201Z,99862.14
2017-10-21T10:52:16.612Z,99861.23
2017-10-21T10:54:43.165Z,99857.46
2017-10-21T10:57:09.545Z,99857.38
2017-10-21T10:59:36.050Z,99852.72
2017-10-21T11:02:02.371Z,99862.78
2017-10-21T11:04:28.671Z,99852.71
2017-10-21T11:06:55.798Z,99860.95
2017-10-21T11:09:22.995Z,99861.25
2017-10-21T11:11:49.303Z,99851.91
2017-10-21T11:14:16.395Z,99841.28
2017-10-21T11:16:42.721Z,99839.55
2017-10-21T11:19:09.898Z,99842.73
2017-10-21T11:21:36.250Z,99841.23
2017-10-21T11:24:02.565Z,99832.53
2017-10-21T11:26:29.584Z,99829.37
2017-10-21T11:28:55.880Z,99807.50
2017-10-21T11:31:23.045Z,99826.33
2017-10-21T11:33:49.398Z,99830.52
2017-10-21T11:36:15.816Z,99827.38
2017-10-21T11:38:42.138Z,99825.77
2017-10-21T11:41:08.528Z,99812.17
2017-10-21T11:43:34.894Z,99822.95
2017-10-21T11:46:01.197Z,99821.34
2017-10-21T11:48:28.281Z,99819.86
2017-10-21T11:50:54.674Z,99820.02
2017-10-21T11:53:21.046Z,99814.09
2017-10-21T11:55:48.214Z,99808.98
2017-10-21T11:58:14.565Z,99805.41
2017-10-21T12:00:41.706Z,99809.30
2017-10-21T12:03:08.043Z,99800.12
2017-10-21T12:05:34.479Z,99802.11
2017-10-21T12:08:00.870Z,99807.41
2017-10-21T12:10:28.164Z,99815.31
2017-10-21T12:12:54.491Z,99822.87
2017-10-21T12:15:20.853Z,99819.35
2017-10-21T12:17:47.144Z,99812.34
2017-10-21T12:20:13.736Z,99812.94
2017-10-21T12:22:40.791Z,99814.79
2017-10-21T12:25:07.910Z,99812.03
2017-10-21T12:27:34.244Z,99808.41
2017-10-21T12:30:00.695Z,99807.56
2017-10-21T12:32:27.925Z,99797.80
2017-10-21T12:34:54.220Z,99801.27
2017-10-21T12:37:21.042Z,99798.75
2017-10-21T12:39:47.337Z,99803.66
2017-10-21T12:42:13.709Z,99796.48
2017-10-21T12:44:39.966Z,99785.14
2017-10-21T12:47:06.290Z,99783.75
2017-10-21T12:49:32.669Z,99786.75
2017-10-21T12:51:58.938Z,99781.30
2017-10-21T12:54:25.271Z,99784.80
2017-10-21T12:56:51.611Z,99777.78
2017-10-21T12:59:18.121Z,99775.44
2017-10-21T13:01:44.483Z,99776.53
2017-10-21T13:04:11.775Z,99772.91
2017-10-21T13:06:38.191Z,99768.54
2017-10-21T13:09:04.517Z,99760.09
2017-10-21T13:11:30.908Z,99769.77
2017-10-21T13:13:57.263Z,99762.15
2017-10-21T13:16:23.654Z,99751.41
2017-10-21T13:18:50.722Z,99757.02
2017-10-21T13:21:17.174Z,99756.34
2017-10-21T13:23:43.684Z,99757.70
2017-10-21T13:26:10.803Z,99757.03
2017-10-21T13:28:37.104Z,99759.55
2017-10-21T13:31:03.439Z,99755.56
2017-10-21T13:33:29.750Z,99756.27
2017-10-21T13:35:56.082Z,99758.06
2017-10-21T13:38:22.494Z,99762.95
2017-10-21T13:40:48.880Z,99759.53
2017-10-21T13:43:15.266Z,99763.55
2017-10-21T13:45:41.591Z,99764.94
2017-10-21T13:48:07.981Z,99760.25
2017-10-21T13:50:35.307Z,99751.45
2017-10-21T13:53:02.492Z,99750.31
2017-10-21T13:55:28.918Z,99737.61
2017-10-21T13:57:55.271Z,99744.69
2017-10-21T14:00:21.594Z,99737.84
2017-10-21T14:02:47.965Z,99732.09
2017-10-21T14:05:14.290Z,99729.22
2017-10-21T14:07:40.722Z,99724.39
2017-10-21T14:10:07.129Z,99718.98
2017-10-21T14:12:33.467Z,99722.70
2017-10-21T14:15:00.555Z,99722.14
2017-10-21T14:17:27.941Z,99725.94
2017-10-21T14:19:54.314Z,99715.20
2017-10-21T14:22:21.449Z,99712.92
2017-10-21T14:24:48.629Z,99719.80
2017-10-21T14:27:15.072Z,99710.22
2017-10-21T14:29:41.418Z,99707.19
2017-10-21T14:32:07.894Z,99704.03
2017-10-21T14:34:34.262Z,99697.52
2017-10-21T14:37:00.585Z,99705.00
2017-10-21T14:39:27.663Z,99707.98
2017-10-21T14:41:53.979Z,99706.69
2017-10-21T14:44:20.341Z,99718.64
2017-10-21T14:46:46.729Z,99715.38
2017-10-21T14:49:13.071Z,99710.45
2017-10-21T14:51:39.579Z,99712.85
2017-10-21T14:54:06.616Z,99710.80
2017-10-21T14:56:33.633Z,99714.30
2017-10-21T14:59:00.054Z,99710.83
2017-10-21T15:01:26.463Z,99705.24
2017-10-21T15:03:52.874Z,99709.53
2017-10-21T15:06:20.017Z,99706.77
2017-10-21T15:08:46.440Z,99711.95
2017-10-21T15:11:12.882Z,99713.78
2017-10-21T15:13:39.311Z,99713.72
2017-10-21T15:16:05.662Z,99715.98
2017-10-21T15:18:32.729Z,99713.89
2017-10-21T15:20:59.058Z,99714.61
2017-10-21T15:23:26.211Z,99717.02
2017-10-21T15:25:52.516Z,99721.16
2017-10-21T15:28:18.885Z,99721.51
2017-10-21T15:30:45.193Z,99718.81
2017-10-21T15:33:12.223Z,99716.48
2017-10-21T15:35:38.535Z,99715.87
2017-10-21T15:38:04.893Z,99717.34
2017-10-21T15:40:31.903Z,99716.76
2017-10-21T15:42:58.265Z,99720.95
2017-10-21T15:45:25.039Z,99722.35
2017-10-21T15:47:51.448Z,99717.31
2017-10-21T15:50:18.525Z,99721.78
2017-10-21T15:52:44.837Z,99717.76
2017-10-21T15:55:11.934Z,99721.24
2017-10-21T15:57:38.673Z,99726.20
2017-10-21T16:00:05.092Z,99733.70
2017-10-21T16:02:31.800Z,99730.49
2017-10-21T16:04:58.861Z,99731.96
2017-10-21T16:07:26.100Z,99739.11
2017-10-21T16:09:53.137Z,99744.44
2017-10-21T16:12:19.446Z,99734.23
2017-10-21T16:14:45.975Z,99741.23
2017-10-21T16:17:12.352Z,99738.51
2017-10-21T16:19:39.483Z,99753.73
2017-10-21T16:22:06.585Z,99760.06
2017-10-21T16:24:32.942Z,99758.00
2017-10-21T16:26:59.365Z,99761.84
2017-10-21T16:29:25.729Z,99754.56
2017-10-21T16:31:52.871Z,99753.94
2017-10-21T16:34:19.308Z,99760.22
2017-10-21T16:36:45.689Z,99755.29
2017-10-21T16:41:45.277Z,99750.88
2017-10-21T16:44:12.313Z,99747.95
2017-10-21T16:46:38.646Z,99740.38
2017-10-21T16:49:06.490Z,99745.03
2017-10-21T16:51:33.105Z,99742.41
2017-10-21T16:53:59.655Z,99743.39
2017-10-21T16:56:26.042Z,99746.83
2017-10-21T16:58:53.608Z,99740.38
2017-10-21T17:01:19.927Z,99755.77
2017-10-21T17:03:46.296Z,99753.59
2017-10-21T17:06:12.656Z,99747.33
2017-10-21T17:08:39.907Z,99759.81
2017-10-21T17:11:06.519Z,99756.44
2017-10-21T17:13:32.905Z,99760.68
2017-10-21T17:16:00.093Z,99757.89
2017-10-21T17:18:26.589Z,99756.28
2017-10-21T17:20:53.744Z,99756.42
2017-10-21T17:23:20.121Z,99755.73
2017-10-21T17:25:46.855Z,99763.81
2017-10-21T17:28:13.245Z,99761.95
2017-10-21T17:30:40.425Z,99764.84
2017-10-21T17:33:06.773Z,99766.19
2017-10-21T17:35:33.156Z,99766.80
2017-10-21T17:37:59.537Z,99764.84
2017-10-21T17:40:25.955Z,99761.02
2017-10-21T17:42:52.262Z,99753.87
2017-10-21T17:45:19.286Z,99762.77
2017-10-21T17:47:46.386Z,99759.58
2017-10-21T17:50:12.686Z,99759.50
2017-10-21T17:52:39.796Z,99755.41
2017-10-21T17:55:06.357Z,99748.91
2017-10-21T17:57:32.764Z,99749.05
2017-10-21T17:59:59.111Z,99752.95
2017-10-21T18:02:25.432Z,99752.95
2017-10-21T18:04:51.743Z,99746.94
2017-10-21T18:07:18.035Z,99752.22
2017-10-21T18:09:45.354Z,99755.07
2017-10-21T18:12:11.816Z,99754.99
2017-10-21T18:14:38.107Z,99737.66
2017-10-21T18:17:04.440Z,99749.25
2017-10-21T18:19:30.860Z,99745.26
2017-10-21T18:21:57.184Z,99727.63
2017-10-21T18:24:23.575Z,99740.45
2017-10-21T18:26:50.675Z,99742.53
2017-10-21T18:29:17.124Z,99740.34
2017-10-21T18:31:43.483Z,99742.31
2017-10-21T18:34:09.943Z,99749.19
2017-10-21T18:36:36.312Z,99739.00
2017-10-21T18:39:02.763Z,99732.50
2017-10-21T18:41:29.219Z,99732.22
2017-10-21T18:43:55.625Z,99739.08
2017-10-21T18:46:22.002Z,99729.11
2017-10-21T18:48:48.465Z,99732.59
2017-10-21T18:51:14.942Z,99719.98
2017-10-21T18:53:41.544Z,99726.00
2017-10-21T18:56:08.782Z,99717.97
2017-10-21T18:58:35.205Z,99705.24
2017-10-21T19:01:01.620Z,99708.92
2017-10-21T19:03:28.818Z,99708.37
2017-10-21T19:05:55.259Z,99712.99
2017-10-21T19:08:21.700Z,99704.80
2017-10-21T19:10:48.871Z,99669.41
2017-10-21T19:13:15.203Z,99702.62
2017-10-21T19:15:41.643Z,99697.92
2017-10-21T19:18:08.049Z,99699.48
2017-10-21T19:20:34.348Z,99696.30
2017-10-21T19:23:00.845Z,99690.09
2017-10-21T19:25:28.427Z,99686.78
2017-10-21T19:27:54.821Z,99677.40
2017-10-21T19:30:21.327Z,99682.66
2017-10-21T19:32:47.735Z,99689.19
2017-10-21T19:35:14.243Z,99683.24
2017-10-21T19:37:41.331Z,99677.84
2017-10-21T19:40:07.745Z,99680.24
2017-10-21T19:42:34.855Z,99674.08
2017-10-21T19:45:01.219Z,99677.61
2017-10-21T19:47:28.401Z,99666.13
2017-10-21T19:49:54.736Z,99668.19
2017-10-21T19:52:21.143Z,99666.07
2017-10-21T19:54:47.527Z,99675.28
2017-10-21T19:57:14.072Z,99679.41
2017-10-21T19:59:40.478Z,99669.03
2017-10-21T20:02:06.881Z,99668.51
2017-10-21T20:04:33.231Z,99679.80
2017-10-21T20:06:59.672Z,99675.78
2017-10-21T20:09:26.123Z,99678.46
2017-10-21T20:11:52.483Z,99670.68
2017-10-21T20:14:19.657Z,99668.38
2017-10-21T20:16:47.679Z,99677.05
2017-10-21T20:19:14.019Z,99665.38
2017-10-21T20:21:40.356Z,99665.84
2017-10-21T20:24:07.462Z,99675.28
2017-10-21T20:26:34.129Z,99673.45
2017-10-21T20:29:00.623Z,99663.42
2017-10-21T20:31:26.981Z,99663.89
2017-10-21T20:33:53.580Z,99669.93
2017-10-21T20:36:20.079Z,99669.30
2017-10-21T20:38:47.600Z,99678.77
2017-10-21T20:41:14.000Z,99683.81
2017-10-21T20:43:41.382Z,99679.79
2017-10-21T20:46:07.769Z,99686.77
2017-10-21T20:48:35.039Z,99677.66
2017-10-21T20:51:02.317Z,99674.73
2017-10-21T20:53:28.798Z,99672.84
2017-10-21T20:55:55.243Z,99668.86
2017-10-21T20:58:21.563Z,99666.83
2017-10-21T21:00:48.035Z,99667.88
2017-10-21T21:03:15.182Z,99659.31
2017-10-21T21:05:42.291Z,99651.88
2017-10-21T21:08:08.700Z,99646.86
2017-10-21T21:10:35.058Z,99641.70
2017-10-21T21:13:01.421Z,99641.14
2017-10-21T21:15:28.612Z,99639.66
2017-10-21T21:17:54.962Z,99628.17
2017-10-21T21:20:21.300Z,99631.77
2017-10-21T21:22:47.626Z,99632.00
2017-10-21T21:25:13.992Z,99621.86
2017-10-21T21:27:41.086Z,99618.22
2017-10-21T21:30:07.679Z,99615.09
2017-10-21T21:32:34.044Z,99610.05
2017-10-21T21:35:00.451Z,99605.09
2017-10-21T21:37:27.554Z,99600.89
2017-10-21T21:39:53.864Z,99589.01
2017-10-21T21:42:27.374Z,99594.63
2017-10-21T21:44:53.728Z,99601.12
2017-10-21T21:47:20.149Z,99598.44
2017-10-21T21:49:46.504Z,99604.47
2017-10-21T21:52:12.948Z,99616.89
2017-10-21T21:54:39.307Z,99616.96
2017-10-21T21:57:05.644Z,99610.84
2017-10-21T21:59:32.031Z,99608.17
2017-10-21T22:01:58.430Z,99608.55
2017-10-21T22:04:24.790Z,99605.80
2017-10-21T22:06:51.310Z,99597.63
2017-10-21T22:09:20.766Z,99590.04
2017-10-21T22:11:47.892Z,99595.71
2017-10-21T22:14:14.268Z,99595.30
2017-10-21T22:16:40.591Z,99598.86
2017-10-21T22:19:06.918Z,99601.02
2017-10-21T22:21:34.061Z,99598.00
2017-10-21T22:24:01.984Z,99596.73
2017-10-21T22:26:28.318Z,99602.45
2017-10-21T22:28:54.590Z,99604.91
2017-10-21T22:31:21.659Z,99601.80
2017-10-21T22:33:48.086Z,99594.67
2017-10-21T22:36:14.426Z,99593.47
2017-10-21T22:38:40.790Z,99590.08
2017-10-21T22:41:07.110Z,99597.23
2017-10-21T22:43:33.528Z,99601.79
2017-10-21T22:45:59.958Z,99605.09
2017-10-21T22:48:26.292Z,99601.08
2017-10-21T22:50:52.662Z,99596.37
2017-10-21T22:53:19.073Z,99596.31
2017-10-21T22:55:45.434Z,99593.51
2017-10-21T22:58:11.759Z,99597.63
2017-10-21T23:00:38.161Z,99594.23
2017-10-21T23:03:04.595Z,99599.59
2017-10-21T23:05:30.962Z,99594.47
2017-10-21T23:07:57.284Z,99593.92
2017-10-21T23:10:23.710Z,99596.64
2017-10-21T23:12:50.006Z,99600.09
2017-10-21T23:15:16.366Z,99597.70
2017-10-21T23:17:42.728Z,99595.48
2017-10-21T23:20:10.560Z,99589.87
2017-10-21T23:22:36.891Z,99594.74
2017-10-21T23:25:03.253Z,99605.71
2017-10-21T23:27:29.611Z,99610.06
2017-10-21T23:29:56.727Z,99619.67
2017-10-21T23:32:23.070Z,99627.25
2017-10-21T23:34:49.502Z,99633.36
2017-10-21T23:37:17.318Z,99636.90
2017-10-21T23:39:43.858Z,99644.26
2017-10-21T23:42:10.174Z,99662.31
2017-10-21T23:44:36.503Z,99673.73
2017-10-21T23:47:02.982Z,99666.66
2017-10-21T23:49:29.354Z,99672.04
2017-10-21T23:51:56.455Z,99668.53
2017-10-21T23:54:22.815Z,99676.33
2017-10-21T23:56:49.233Z,99679.66
2017-10-21T23:59:15.618Z,99680.20
